Time;durP1;ratioP1;P1;durP2;ratioP2;P2;SDS_P1;SDS_P2;PMS_P1;PMS_P2;Temp;Humidity;BMP_temperature;BMP_pressure;BME280_temperature;BME280_humidity;BME280_pressure;Samples;Min_cycle;Max_cycle;Signal;HPM_P1;HPM_P2
2022/07/12 00:02:17;;;;;;;3.30;1.73;;;;;;;27.00;49.40;101283.78;5095503;28;20048;-75
2022/07/12 00:04:44;;;;;;;5.43;2.13;;;;;;;26.98;49.11;101289.38;5076942;28;20053;-76
2022/07/12 00:07:12;;;;;;;2.88;1.85;;;;;;;26.99;49.19;101291.09;5094954;28;20044;-76
2022/07/12 00:09:39;;;;;;;4.65;1.95;;;;;;;27.00;49.37;101294.63;5095386;28;20356;-76
2022/07/12 00:12:07;;;;;;;6.20;1.88;;;;;;;27.01;49.33;101301.75;5094958;28;20040;-76
2022/07/12 00:14:35;;;;;;;3.80;2.00;;;;;;;27.00;49.12;101306.34;5095170;28;20055;-75
2022/07/12 00:17:04;;;;;;;2.40;1.45;;;;;;;27.01;49.09;101315.34;5094872;28;20380;-75
2022/07/12 00:19:32;;;;;;;3.80;1.80;;;;;;;27.01;49.17;101309.91;5094881;28;20055;-76
2022/07/12 00:21:59;;;;;;;5.15;1.85;;;;;;;27.02;49.34;101308.88;5092201;28;20488;-76
2022/07/12 00:24:27;;;;;;;5.30;1.70;;;;;;;27.02;49.11;101307.06;5085087;28;20051;-76
2022/07/12 00:26:55;;;;;;;3.08;1.70;;;;;;;27.01;49.03;101299.91;5073257;28;20052;-76
2022/07/12 00:29:22;;;;;;;2.95;1.80;;;;;;;27.03;49.35;101300.59;5074785;28;20052;-76
2022/07/12 00:31:50;;;;;;;4.65;2.33;;;;;;;27.03;49.26;101308.75;5073101;28;20089;-76
2022/07/12 00:34:17;;;;;;;4.18;1.92;;;;;;;27.03;49.40;101303.31;5074405;28;20114;-76
2022/07/12 00:36:44;;;;;;;3.00;1.70;;;;;;;27.03;49.41;101311.47;5074269;28;20051;-75
2022/07/12 00:39:12;;;;;;;3.78;1.70;;;;;;;27.05;49.48;101309.41;5072298;28;20048;-75
2022/07/12 00:41:39;;;;;;;3.40;1.98;;;;;;;27.04;49.48;101315.88;5073298;28;20044;-75
2022/07/12 00:44:06;;;;;;;6.43;2.00;;;;;;;27.05;49.60;101317.56;5074298;28;20049;-76
2022/07/12 00:46:34;;;;;;;4.97;1.95;;;;;;;27.06;49.65;101318.41;5078616;28;20047;-76
2022/07/12 00:49:01;;;;;;;4.60;1.80;;;;;;;27.05;49.37;101312.13;5094694;28;20044;-75
2022/07/12 00:51:29;;;;;;;3.75;1.67;;;;;;;27.06;49.71;101312.97;5094319;28;20051;-76
2022/07/12 00:53:58;;;;;;;4.45;1.85;;;;;;;27.06;49.65;101310.25;5088023;28;20059;-76
2022/07/12 00:56:26;;;;;;;2.72;1.52;;;;;;;27.06;49.48;101313.84;5072323;28;20044;-76
2022/07/12 00:58:53;;;;;;;3.20;1.80;;;;;;;27.05;49.49;101309.41;5073714;28;20045;-76
2022/07/12 01:01:22;;;;;;;4.53;1.67;;;;;;;27.06;49.64;101313.84;5072521;28;20051;-76
2022/07/12 01:03:50;;;;;;;4.22;1.60;;;;;;;27.05;49.36;101314.84;5073921;28;20051;-75
2022/07/12 01:06:20;;;;;;;2.95;1.77;;;;;;;27.06;49.72;101316.56;5073511;28;20048;-76
2022/07/12 01:08:48;;;;;;;4.70;1.67;;;;;;;27.05;49.55;101317.56;5072671;28;20048;-76
2022/07/12 01:11:16;;;;;;;3.28;1.83;;;;;;;27.07;49.38;101329.13;5073892;28;20055;-76
2022/07/12 01:13:45;;;;;;;5.60;2.10;;;;;;;27.08;49.61;101327.25;5073466;28;20052;-76
2022/07/12 01:16:14;;;;;;;6.40;1.73;;;;;;;27.08;49.60;101324.53;5073664;28;20043;-76
2022/07/12 01:18:44;;;;;;;4.90;1.77;;;;;;;27.07;49.54;101320.97;5073934;28;20044;-76
2022/07/12 01:21:18;;;;;;;3.45;1.70;;;;;;;27.08;49.69;101314.50;5073434;28;20504;-76
2022/07/12 01:23:49;;;;;;;2.20;1.45;;;;;;;27.08;49.36;101317.22;5073561;28;20506;-76
2022/07/12 01:26:17;;;;;;;2.40;1.50;;;;;;;27.09;49.91;101307.19;5072614;28;20048;-76
2022/07/12 01:28:45;;;;;;;3.47;1.75;;;;;;;27.08;49.88;101295.47;5073199;28;20645;-76
2022/07/12 01:31:12;;;;;;;3.13;1.60;;;;;;;27.08;49.74;101305.50;5073555;28;20049;-76
2022/07/12 01:33:40;;;;;;;3.00;1.55;;;;;;;27.08;50.17;101300.06;5093203;28;20484;-76
2022/07/12 01:36:08;;;;;;;3.85;2.15;;;;;;;27.08;49.90;101306.34;5093337;28;20047;-76
2022/07/12 01:38:35;;;;;;;3.50;1.85;;;;;;;27.08;49.75;101311.78;5093420;28;20059;-76
2022/07/12 01:41:04;;;;;;;4.10;1.90;;;;;;;27.09;49.79;101315.34;5093212;28;20484;-75
2022/07/12 01:43:31;;;;;;;2.58;1.60;;;;;;;27.09;49.79;101318.91;5074617;28;20047;-76
2022/07/12 01:45:58;;;;;;;3.83;2.00;;;;;;;27.09;49.59;101318.91;5093564;28;20043;-76
2022/07/12 01:48:26;;;;;;;5.40;2.33;;;;;;;27.10;49.95;101315.22;5093126;28;20052;-76
2022/07/12 01:50:53;;;;;;;4.18;1.70;;;;;;;27.10;50.01;101314.34;5093149;28;20048;-76
2022/07/12 01:53:21;;;;;;;3.63;1.80;;;;;;;27.09;50.02;101321.63;5093559;28;20039;-76
2022/07/12 01:55:49;;;;;;;4.00;2.05;;;;;;;27.10;50.14;101323.38;5080880;28;20044;-76
2022/07/12 01:58:17;;;;;;;2.00;1.50;;;;;;;27.10;50.06;101317.06;5072453;28;20047;-76
2022/07/12 02:00:50;;;;;;;3.28;1.88;;;;;;;27.09;49.80;101316.19;5072814;28;20049;-76
2022/07/12 02:03:19;;;;;;;2.67;1.50;;;;;;;27.11;50.09;101325.06;5073260;28;20056;-76
2022/07/12 02:05:46;;;;;;;2.67;1.80;;;;;;;27.10;49.96;101319.78;5072632;28;20046;-76
2022/07/12 02:08:14;;;;;;;3.20;1.70;;;;;;;27.10;50.15;101314.34;5071844;28;20040;-75
2022/07/12 02:10:44;;;;;;;5.10;2.10;;;;;;;27.10;50.01;101323.38;5072506;28;20059;-75
2022/07/12 02:13:12;;;;;;;2.67;1.70;;;;;;;27.11;50.34;101321.50;5072835;28;20476;-75
2022/07/12 02:15:39;;;;;;;3.97;1.75;;;;;;;27.11;50.37;101327.78;5073207;28;20091;-76
2022/07/12 02:18:07;;;;;;;2.80;1.67;;;;;;;27.10;50.39;101325.22;5072663;28;20507;-76
2022/07/12 02:20:34;;;;;;;2.33;1.60;;;;;;;27.10;50.36;101323.38;5072598;28;20047;-75
2022/07/12 02:23:02;;;;;;;2.50;1.65;;;;;;;27.11;50.34;101321.50;5072827;28;20055;-76
2022/07/12 02:25:29;;;;;;;3.78;2.03;;;;;;;27.10;50.21;101320.66;5072386;28;20044;-76
2022/07/12 02:27:56;;;;;;;3.92;1.63;;;;;;;27.10;50.19;101317.94;5071043;28;20079;-77
2022/07/12 02:30:24;;;;;;;2.85;1.60;;;;;;;27.11;50.07;101324.22;5071124;28;20060;-77
2022/07/12 02:32:51;;;;;;;2.38;1.75;;;;;;;27.11;50.23;101337.81;5072727;28;20490;-77
2022/07/12 02:35:19;;;;;;;3.95;1.77;;;;;;;27.11;50.13;101332.38;5072468;28;20052;-76
2022/07/12 02:37:46;;;;;;;3.22;1.70;;;;;;;27.10;50.38;101339.69;5072291;28;20045;-77
2022/07/12 02:42:59;;;;;;;3.95;1.65;;;;;;;27.10;50.61;101342.41;5072479;28;20115;-77
2022/07/12 02:45:27;;;;;;;2.22;1.70;;;;;;;27.10;50.56;101338.81;5073968;28;20061;-77
2022/07/12 02:47:54;;;;;;;3.55;1.52;;;;;;;27.10;50.18;101345.13;5084971;28;20479;-79
2022/07/12 02:50:21;;;;;;;3.65;1.77;;;;;;;27.11;50.88;101352.25;5096842;28;20045;-77
2022/07/12 02:52:49;;;;;;;5.90;1.90;;;;;;;27.09;50.55;101348.81;5098044;28;20088;-76
2022/07/12 02:55:17;;;;;;;4.18;1.83;;;;;;;27.07;51.35;101348.13;5096988;28;20056;-76
2022/07/12 02:57:44;;;;;;;3.90;1.80;;;;;;;27.07;50.86;101359.00;5078569;28;20066;-76
2022/07/12 03:00:12;;;;;;;3.83;1.85;;;;;;;27.05;50.59;101355.59;5096712;28;20051;-76
2022/07/12 03:02:39;;;;;;;2.80;1.63;;;;;;;27.03;50.75;101349.50;5097199;28;20036;-78
2022/07/12 03:05:07;;;;;;;2.97;1.80;;;;;;;27.03;50.60;101360.38;5097053;28;20411;-76
2022/07/12 03:07:34;;;;;;;3.08;1.67;;;;;;;27.03;50.66;101360.38;5096734;28;20051;-77
2022/07/12 03:10:03;;;;;;;4.30;2.00;;;;;;;27.02;50.60;101366.84;5096275;28;20372;-81
2022/07/12 03:12:31;;;;;;;4.57;1.65;;;;;;;27.03;50.66;101363.09;5096893;28;20048;-76
2022/07/12 03:14:58;;;;;;;3.10;1.90;;;;;;;27.01;50.53;101365.13;5096088;28;20044;-76
2022/07/12 03:17:25;;;;;;;4.45;1.60;;;;;;;27.01;50.44;101356.13;5096365;28;20040;-77
2022/07/12 03:19:53;;;;;;;4.00;1.75;;;;;;;27.00;50.36;101360.69;5095995;28;20036;-76
2022/07/12 03:22:20;;;;;;;3.45;1.45;;;;;;;26.99;50.44;101369.03;5094404;28;20063;-81
2022/07/12 03:24:47;;;;;;;3.58;1.83;;;;;;;26.98;50.37;101368.19;5094860;28;20048;-80
2022/07/12 03:27:15;;;;;;;2.85;1.42;;;;;;;26.97;50.34;101371.91;5096110;28;20367;-77
2022/07/12 03:29:42;;;;;;;2.88;1.60;;;;;;;26.97;50.62;101363.75;5095792;28;20044;-77
2022/07/12 03:32:09;;;;;;;2.50;1.33;;;;;;;26.98;50.73;101362.75;5095892;28;20438;-76
2022/07/12 03:34:37;;;;;;;4.05;1.80;;;;;;;26.97;50.49;101363.75;5094634;28;20055;-76
2022/07/12 03:37:04;;;;;;;5.55;2.15;;;;;;;26.95;50.55;101368.53;5093879;28;20055;-77
2022/07/12 03:39:31;;;;;;;3.10;1.70;;;;;;;26.94;50.71;101369.56;5095467;28;20055;-76
2022/07/12 03:42:01;;;;;;;3.70;1.92;;;;;;;26.94;50.49;101369.56;5096021;28;20051;-76
2022/07/12 03:44:30;;;;;;;3.90;1.92;;;;;;;26.94;50.69;101364.13;5095462;28;20044;-77
2022/07/12 03:46:58;;;;;;;2.42;1.63;;;;;;;26.95;50.71;101359.53;5093979;28;20059;-76
2022/07/12 03:49:25;;;;;;;3.70;1.83;;;;;;;26.95;50.77;101364.97;5095358;28;20048;-77
2022/07/12 03:51:53;;;;;;;2.08;1.63;;;;;;;26.94;50.82;101364.13;5095558;28;20487;-76
2022/07/12 03:54:20;;;;;;;4.78;1.48;;;;;;;26.95;51.19;101373.97;5095392;28;20089;-76
2022/07/12 03:59:34;;;;;;;4.88;1.70;;;;;;;26.95;51.10;101373.97;5092942;28;20059;-76
2022/07/12 04:02:08;;;;;;;3.70;1.60;;;;;;;26.94;50.83;101385.84;5094055;28;20499;-76
2022/07/12 04:04:35;;;;;;;3.40;1.83;;;;;;;26.95;50.73;101387.53;5095433;28;20044;-76
2022/07/12 04:07:04;;;;;;;4.03;1.80;;;;;;;26.94;50.69;101377.69;5094852;28;20055;-76
2022/07/12 04:09:31;;;;;;;3.83;1.88;;;;;;;26.95;51.45;101383.97;5094234;28;20048;-76
2022/07/12 04:11:59;;;;;;;4.72;1.70;;;;;;;26.96;51.29;101382.97;5095164;28;20044;-76
2022/07/12 04:14:28;;;;;;;3.40;1.50;;;;;;;26.96;51.67;101385.66;5095080;28;20044;-76
2022/07/12 04:16:56;;;;;;;5.03;2.05;;;;;;;26.96;51.57;101386.50;5095641;28;20044;-76
2022/07/12 04:19:27;;;;;;;3.03;1.90;;;;;;;26.96;51.42;101388.38;5094917;28;20502;-76
2022/07/12 04:21:57;;;;;;;3.38;1.77;;;;;;;26.96;51.90;101385.66;5094823;28;20040;-76
2022/07/12 04:24:25;;;;;;;6.35;1.58;;;;;;;26.95;51.56;101387.53;5085105;28;20411;-76
2022/07/12 04:26:52;;;;;;;3.03;1.73;;;;;;;26.95;51.29;101389.41;5074850;28;20040;-76
2022/07/12 04:29:20;;;;;;;2.88;1.80;;;;;;;26.94;51.16;101382.25;5074627;28;20056;-76
2022/07/12 04:31:48;;;;;;;3.45;1.50;;;;;;;26.93;51.32;101389.56;5074500;28;20045;-76
2022/07/12 04:34:16;;;;;;;3.45;1.80;;;;;;;26.95;51.66;101400.28;5074657;28;20045;-76
2022/07/12 04:36:45;;;;;;;4.25;1.63;;;;;;;26.94;51.72;101401.28;5074148;28;20041;-76
2022/07/12 04:39:12;;;;;;;4.60;1.92;;;;;;;26.94;51.71;101402.16;5072179;28;20052;-76
2022/07/12 04:41:39;;;;;;;2.95;1.90;;;;;;;26.94;51.34;101406.72;5074607;28;20044;-77
2022/07/12 04:44:07;;;;;;;4.28;2.05;;;;;;;26.92;52.20;101404.19;5074275;28;20530;-76
2022/07/12 04:46:35;;;;;;;3.63;1.80;;;;;;;26.91;51.82;101407.91;5074382;28;20041;-76
2022/07/12 04:49:02;;;;;;;3.13;1.90;;;;;;;26.91;52.37;101409.78;5089344;28;20483;-76
2022/07/12 04:51:29;;;;;;;4.20;1.70;;;;;;;26.90;52.49;101417.09;5094057;28;20522;-76
2022/07/12 04:53:57;;;;;;;2.70;1.88;;;;;;;26.91;51.98;101421.50;5094121;28;20043;-76
2022/07/12 04:56:24;;;;;;;3.03;1.80;;;;;;;26.91;52.25;101421.50;5093964;28;20040;-76
2022/07/12 04:58:52;;;;;;;3.00;2.20;;;;;;;26.93;52.08;101424.03;5081895;28;20045;-76
2022/07/12 05:01:28;;;;;;;3.35;1.63;;;;;;;26.92;51.91;101422.34;5073582;28;20045;-76
2022/07/12 05:03:56;;;;;;;3.13;1.80;;;;;;;26.92;51.83;101425.06;5074202;28;20412;-76
2022/07/12 05:06:23;;;;;;;4.07;1.55;;;;;;;26.91;52.01;101426.94;5073671;28;20049;-76
2022/07/12 05:08:51;;;;;;;4.03;2.20;;;;;;;26.91;51.76;101432.38;5072299;28;20041;-76
2022/07/12 05:11:19;;;;;;;4.72;1.60;;;;;;;26.92;51.92;101430.50;5073663;28;20052;-76
2022/07/12 05:13:46;;;;;;;3.33;1.80;;;;;;;26.91;52.13;101429.66;5073520;28;20055;-75
2022/07/12 05:16:14;;;;;;;3.65;2.22;;;;;;;26.93;51.82;101432.19;5072292;28;20492;-76
2022/07/12 05:18:41;;;;;;;4.57;1.88;;;;;;;26.91;51.82;101429.66;5073285;28;20055;-76
2022/07/12 05:21:09;;;;;;;3.88;1.80;;;;;;;26.92;51.91;101431.34;5073276;28;20056;-75
2022/07/12 05:23:36;;;;;;;3.22;1.80;;;;;;;26.92;51.59;101431.34;5073722;28;20048;-76
2022/07/12 05:26:04;;;;;;;4.72;1.60;;;;;;;26.92;52.35;101425.06;5073294;28;20518;-76
2022/07/12 05:28:38;;;;;;;3.83;2.28;;;;;;;26.92;51.90;101425.06;5073394;28;20048;-76
2022/07/12 05:31:19;;;;;;;3.55;1.75;;;;;;;26.91;51.94;101416.06;5057349;28;20048;-76
2022/07/12 05:33:47;;;;;;;4.40;2.00;;;;;;;26.92;51.72;101412.31;5060466;28;20048;-76
2022/07/12 05:36:14;;;;;;;4.10;1.63;;;;;;;26.94;51.99;101420.28;5093353;28;20488;-76
2022/07/12 05:38:41;;;;;;;2.88;2.00;;;;;;;26.94;52.02;101423.00;5093511;28;20053;-76
2022/07/12 05:41:09;;;;;;;2.60;1.50;;;;;;;26.93;52.11;101422.16;5093644;28;20048;-76
2022/07/12 05:43:36;;;;;;;2.50;1.80;;;;;;;26.93;52.37;101424.88;5093187;28;20452;-76
2022/07/12 05:46:05;;;;;;;3.55;1.95;;;;;;;26.94;52.84;101426.59;5093472;28;20048;-76
2022/07/12 05:48:32;;;;;;;2.30;1.50;;;;;;;26.95;52.27;101441.03;5091458;28;20122;-76
2022/07/12 05:53:21;;;;;;;4.40;2.00;;;;;;;26.95;52.20;101436.44;5093670;28;20411;-76
2022/07/12 05:53:47;;;;;;;4.18;2.25;;;;;;;26.93;52.72;101441.19;5093416;28;20067;-76
2022/07/12 05:56:14;;;;;;;3.00;1.90;;;;;;;26.94;52.84;101436.59;5093491;28;20048;-76
2022/07/12 05:58:42;;;;;;;6.05;2.08;;;;;;;26.94;52.87;101437.47;5091154;28;20484;-76
2022/07/12 06:01:09;;;;;;;3.75;1.80;;;;;;;26.94;53.07;101442.91;5072157;28;20419;-76
2022/07/12 06:03:37;;;;;;;4.22;1.80;;;;;;;26.95;53.26;101449.19;5071478;28;20053;-76
2022/07/12 06:06:05;;;;;;;5.57;1.80;;;;;;;26.96;53.21;101453.59;5073568;28;20048;-76
2022/07/12 06:08:32;;;;;;;3.95;1.80;;;;;;;26.93;53.25;101449.34;5055269;28;20048;-76
2022/07/12 06:10:59;;;;;;;6.78;1.92;;;;;;;26.94;53.35;101456.50;5073781;28;20052;-76
2022/07/12 06:13:28;;;;;;;2.72;1.90;;;;;;;26.94;53.10;101466.50;5074308;28;20040;-76
2022/07/12 06:15:56;;;;;;;3.72;1.85;;;;;;;26.94;53.06;101453.78;5072826;28;20044;-76
2022/07/12 06:18:23;;;;;;;2.47;1.70;;;;;;;26.95;53.25;101458.19;5071368;28;20040;-76
2022/07/12 06:20:50;;;;;;;2.92;1.75;;;;;;;26.95;53.27;101469.06;5071042;28;20412;-76
2022/07/12 06:23:18;;;;;;;2.40;1.60;;;;;;;26.96;53.24;101467.19;5072448;28;20056;-76
2022/07/12 06:25:45;;;;;;;2.65;1.90;;;;;;;26.96;53.44;101469.91;5072484;28;20040;-76
2022/07/12 06:28:21;;;;;;;4.78;1.90;;;;;;;26.96;53.71;101464.47;5073004;28;20380;-75
2022/07/12 06:30:48;;;;;;;4.40;1.95;;;;;;;26.96;53.70;101462.59;5073154;28;20049;-75
2022/07/12 06:33:16;;;;;;;4.10;2.33;;;;;;;26.96;53.88;101469.91;5073116;28;20064;-75
2022/07/12 06:35:43;;;;;;;2.50;1.73;;;;;;;26.96;54.09;101465.31;5073270;28;20040;-75
2022/07/12 06:38:11;;;;;;;3.83;2.38;;;;;;;26.96;53.76;101461.75;5070902;28;20053;-75
2022/07/12 06:40:38;;;;;;;2.67;1.98;;;;;;;26.97;53.80;101467.00;5072679;28;20052;-74
2022/07/12 06:43:10;;;;;;;5.97;2.13;;;;;;;26.97;53.81;101467.00;5072774;28;20041;-75
2022/07/12 06:45:38;;;;;;;4.78;1.65;;;;;;;26.98;53.98;101471.44;5071814;28;20044;-75
2022/07/12 06:48:06;;;;;;;3.45;1.65;;;;;;;26.98;53.90;101466.00;5074537;28;20045;-74
2022/07/12 06:50:33;;;;;;;3.47;1.80;;;;;;;26.99;53.51;101470.44;5091253;28;20407;-74
2022/07/12 06:53:01;;;;;;;3.10;1.85;;;;;;;26.97;53.62;101461.56;5093025;28;20044;-75
2022/07/12 06:55:29;;;;;;;5.32;1.92;;;;;;;26.98;54.21;101456.97;5093122;28;20048;-74
2022/07/12 06:57:57;;;;;;;2.53;1.83;;;;;;;26.99;53.91;101472.28;5092944;28;20036;-75
2022/07/12 07:00:24;;;;;;;4.75;2.03;;;;;;;27.00;53.76;101471.28;5083053;28;20045;-75
2022/07/12 07:02:52;;;;;;;3.00;1.90;;;;;;;27.00;53.97;101477.56;5071564;28;20051;-75
2022/07/12 07:05:20;;;;;;;4.30;2.13;;;;;;;27.01;53.40;101472.97;5072670;28;20443;-75
2022/07/12 07:07:47;;;;;;;4.32;1.80;;;;;;;27.00;53.30;101482.16;5072289;28;20098;-74
2022/07/12 07:10:15;;;;;;;2.45;1.77;;;;;;;27.00;53.20;101472.13;5072188;28;20044;-74
2022/07/12 07:12:42;;;;;;;4.30;1.70;;;;;;;27.01;53.37;101472.97;5072231;28;20040;-74
2022/07/12 07:15:10;;;;;;;4.03;1.92;;;;;;;27.02;53.19;101489.13;5071510;28;20041;-74
2022/07/12 07:17:37;;;;;;;3.47;1.88;;;;;;;27.02;53.01;101485.53;5072023;28;20496;-75
2022/07/12 07:20:05;;;;;;;3.08;1.90;;;;;;;27.03;53.00;101471.78;5070718;28;20049;-75
2022/07/12 07:22:33;;;;;;;3.30;1.90;;;;;;;27.03;53.08;101489.97;5072041;28;20048;-75
2022/07/12 07:25:00;;;;;;;4.05;2.25;;;;;;;27.04;53.01;101489.78;5070935;28;20041;-74
2022/07/12 07:27:27;;;;;;;5.18;1.73;;;;;;;27.05;53.08;101487.91;5072346;28;20053;-74
2022/07/12 07:32:41;;;;;;;4.88;2.20;;;;;;;27.01;52.35;101495.56;5075866;28;20054;-74
2022/07/12 07:35:08;;;;;;;3.15;1.88;;;;;;;27.00;52.75;101493.00;5080239;28;20044;-74
2022/07/12 07:37:36;;;;;;;5.75;2.33;;;;;;;27.00;52.79;101493.84;5096652;28;20467;-74
2022/07/12 07:40:03;;;;;;;6.93;2.28;;;;;;;26.97;52.57;101488.75;5095861;28;20475;-75
2022/07/12 07:42:31;;;;;;;5.38;2.08;;;;;;;26.97;52.76;101483.31;5095899;28;20052;-75
2022/07/12 07:44:58;;;;;;;6.30;2.60;;;;;;;26.97;52.71;101483.31;5095949;28;20051;-74
2022/07/12 07:47:48;;;;;;;3.33;1.92;;;;;;;26.98;52.58;101485.03;5094838;28;20044;-76
2022/07/12 07:50:35;;;;;;;4.45;1.70;;;;;;;27.00;52.20;101487.56;5096120;28;20048;-76
2022/07/12 07:53:04;;;;;;;3.55;1.80;;;;;;;27.00;52.69;101490.28;5094211;28;20381;-78
2022/07/12 07:55:32;;;;;;;3.70;1.88;;;;;;;27.02;51.81;101488.25;5096099;28;20040;-77
2022/07/12 07:58:00;;;;;;;4.55;2.38;;;;;;;27.00;52.11;101493.84;5095690;28;20044;-75
2022/07/12 08:00:28;;;;;;;4.85;2.22;;;;;;;27.02;52.20;101494.56;5095440;28;20067;-75
2022/07/12 08:02:56;;;;;;;4.95;2.30;;;;;;;27.01;52.03;101487.41;5076495;28;20048;-75
2022/07/12 08:05:24;;;;;;;3.47;2.00;;;;;;;27.02;51.91;101483.69;5075582;28;20048;-76
2022/07/12 08:07:55;;;;;;;3.67;1.98;;;;;;;27.03;51.71;101487.25;5074619;28;20044;-76
2022/07/12 08:10:22;;;;;;;4.45;2.10;;;;;;;27.03;51.50;101488.09;5074022;28;20051;-75
2022/07/12 08:12:49;;;;;;;6.13;2.35;;;;;;;27.04;51.32;101494.38;5075120;28;20052;-75
2022/07/12 08:15:17;;;;;;;3.13;1.83;;;;;;;27.02;51.34;101491.84;5074093;28;20087;-75
2022/07/12 08:17:44;;;;;;;4.95;2.20;;;;;;;27.03;51.42;101495.41;5074843;28;20488;-75
2022/07/12 08:20:21;;;;;;;4.70;2.60;;;;;;;27.02;51.15;101493.69;5074797;28;20040;-74
2022/07/12 08:23:09;;;;;;;4.82;2.05;;;;;;;27.01;51.35;101490.13;5074825;28;20044;-76
2022/07/12 08:25:37;;;;;;;3.40;2.00;;;;;;;27.00;51.16;101480.28;5075064;28;20492;-76
2022/07/12 08:28:04;;;;;;;5.07;2.25;;;;;;;26.99;50.90;101478.56;5075035;28;20059;-76
2022/07/12 08:30:32;;;;;;;3.33;2.17;;;;;;;27.00;51.03;101482.16;5074855;28;20044;-76
2022/07/12 08:32:59;;;;;;;3.05;2.20;;;;;;;26.99;51.02;101486.72;5074876;28;20047;-75
2022/07/12 08:35:27;;;;;;;5.68;2.20;;;;;;;27.02;51.43;101496.41;5072954;28;20480;-75
2022/07/12 08:37:55;;;;;;;3.33;2.30;;;;;;;27.04;50.99;101499.81;5074396;28;20515;-75
2022/07/12 08:40:23;;;;;;;2.65;2.10;;;;;;;27.05;51.10;101504.22;5075605;28;20052;-76
2022/07/12 08:42:50;;;;;;;4.30;2.10;;;;;;;27.06;51.37;101490.50;5072667;28;20048;-75
2022/07/12 08:45:18;;;;;;;3.50;2.28;;;;;;;27.07;51.35;101500.34;5074294;28;20099;-75
2022/07/12 08:47:45;;;;;;;4.00;2.40;;;;;;;27.08;51.22;101496.59;5076955;28;20051;-76
2022/07/12 08:50:20;;;;;;;4.00;2.30;;;;;;;27.09;51.25;101502.88;5085267;28;20080;-75
2022/07/12 08:52:50;;;;;;;5.80;2.40;;;;;;;27.12;50.59;101502.56;5094960;28;20510;-76
2022/07/12 08:55:19;;;;;;;5.78;2.45;;;;;;;27.14;50.52;101495.09;5095007;28;20072;-76
2022/07/12 08:57:48;;;;;;;4.68;2.35;;;;;;;27.15;50.57;101485.09;5094440;28;20385;-76
2022/07/12 09:00:16;;;;;;;4.60;2.20;;;;;;;27.15;50.79;101474.22;5094004;28;20407;-76
2022/07/12 09:02:49;;;;;;;4.18;2.30;;;;;;;27.18;50.88;101473.88;5083371;28;20040;-76
2022/07/12 09:05:20;;;;;;;5.80;2.53;;;;;;;27.20;50.75;101478.13;5073327;28;20048;-75
2022/07/12 09:07:48;;;;;;;4.82;2.50;;;;;;;27.23;50.75;101479.66;5071900;28;20052;-76
2022/07/12 09:10:17;;;;;;;6.32;2.47;;;;;;;27.25;50.71;101472.19;5073513;28;20408;-75
2022/07/12 09:12:45;;;;;;;4.53;2.25;;;;;;;27.27;50.36;101483.75;5074099;28;20488;-75
2022/07/12 09:15:17;;;;;;;3.85;2.30;;;;;;;27.28;50.70;101478.13;5073742;28;20488;-75
2022/07/12 09:18:12;;;;;;;4.28;2.38;;;;;;;27.30;50.71;101480.66;5072422;28;20048;-76
2022/07/12 09:20:42;;;;;;;4.80;2.60;;;;;;;27.30;50.80;101486.94;5073755;28;20037;-76
2022/07/12 09:23:11;;;;;;;5.22;2.08;;;;;;;27.31;50.61;101493.28;5072111;28;20048;-76
2022/07/12 09:25:43;;;;;;;3.47;2.38;;;;;;;27.32;50.52;101487.66;5073362;28;20516;-75
2022/07/12 09:28:11;;;;;;;3.35;2.08;;;;;;;27.33;50.35;101486.63;5073714;28;20060;-76
2022/07/12 09:30:48;;;;;;;2.38;1.80;;;;;;;27.31;50.78;101485.97;5072116;28;20048;-76
2022/07/12 09:36:06;;;;;;;3.13;2.08;;;;;;;27.32;50.75;101503.97;5082610;28;20510;-76
2022/07/12 09:38:52;;;;;;;5.97;2.40;;;;;;;27.33;50.75;101496.66;5093185;28;20442;-75
2022/07/12 09:41:23;;;;;;;5.28;2.30;;;;;;;27.34;50.69;101493.75;5091875;28;20055;-75
2022/07/12 09:43:50;;;;;;;4.45;2.10;;;;;;;27.38;50.22;101485.25;5093588;28;20054;-75
2022/07/12 09:46:17;;;;;;;4.68;2.30;;;;;;;27.40;50.54;101491.41;5093255;28;20040;-75
2022/07/12 09:48:46;;;;;;;5.30;2.47;;;;;;;27.41;50.45;101485.78;5093263;28;20051;-75
2022/07/12 09:51:16;;;;;;;3.63;2.60;;;;;;;27.43;50.27;101493.75;5093924;28;20371;-75
2022/07/12 09:53:48;;;;;;;5.53;2.22;;;;;;;27.44;50.22;101477.28;5077697;28;20052;-75
2022/07/12 09:56:20;;;;;;;4.10;2.20;;;;;;;27.45;50.28;101486.28;5072939;28;20044;-75
2022/07/12 09:58:52;;;;;;;5.00;2.30;;;;;;;27.44;50.39;101477.28;5071567;28;20052;-75
2022/07/12 10:01:20;;;;;;;3.85;2.80;;;;;;;27.42;50.67;101476.59;5073190;28;20040;-79
2022/07/12 10:03:48;;;;;;;6.50;2.63;;;;;;;27.42;50.90;101479.31;5071930;28;20132;-74
2022/07/12 10:06:25;;;;;;;7.32;2.58;;;;;;;27.42;51.09;101478.47;5090309;28;20040;-74
2022/07/12 10:09:01;;;;;;;8.10;2.28;;;;;;;27.41;50.93;101477.63;5092753;28;20040;-75
2022/07/12 10:11:29;;;;;;;4.22;2.60;;;;;;;27.40;50.93;101467.78;5093224;28;20095;-74
2022/07/12 10:14:18;;;;;;;4.70;2.22;;;;;;;27.42;51.44;101463.00;5093307;28;20051;-76
2022/07/12 10:16:49;;;;;;;2.97;2.20;;;;;;;27.43;50.02;101472.88;5092884;28;20047;-74
2022/07/12 10:19:28;;;;;;;5.38;2.50;;;;;;;27.45;50.40;101464.53;5092993;28;20070;-74
2022/07/12 10:21:57;;;;;;;4.15;2.33;;;;;;;27.46;49.31;101475.22;5092959;28;20055;-75
2022/07/12 10:24:30;;;;;;;4.60;2.10;;;;;;;27.51;47.88;101470.16;5083301;28;20052;-75
2022/07/12 10:27:13;;;;;;;4.28;2.47;;;;;;;27.56;47.69;101461.47;5072674;28;20480;-74
2022/07/12 10:29:41;;;;;;;4.05;2.10;;;;;;;27.58;48.35;101453.97;5072469;28;20041;-74
2022/07/12 10:32:40;;;;;;;3.10;2.25;;;;;;;27.62;48.80;101455.34;5072978;28;20060;-74
2022/07/12 10:35:16;;;;;;;3.92;2.30;;;;;;;27.61;48.67;101451.78;5057093;28;20067;-74
2022/07/12 10:38:12;;;;;;;3.22;2.03;;;;;;;27.60;49.34;101451.97;5053771;28;20057;-74
2022/07/12 10:40:43;;;;;;;6.25;2.53;;;;;;;27.61;49.26;101451.78;5072481;28;20048;-77
2022/07/12 10:43:11;;;;;;;4.80;2.72;;;;;;;27.61;49.34;101449.06;5073180;28;20047;-74
2022/07/12 10:45:40;;;;;;;5.95;2.97;;;;;;;27.61;49.35;101448.22;5053764;28;20057;-74
2022/07/12 10:48:14;;;;;;;4.55;2.50;;;;;;;27.60;49.49;101450.09;5072548;28;20044;-75
2022/07/12 10:53:18;;;;;;;2.60;2.35;;;;;;;27.49;49.12;101439.53;5088267;28;20044;-75
2022/07/12 10:56:04;;;;;;;4.72;2.38;;;;;;;27.38;49.24;101436.31;5074405;28;20471;-74
2022/07/12 10:58:32;;;;;;;4.97;2.55;;;;;;;27.27;49.43;101443.81;5078460;28;20075;-73
2022/07/12 11:01:03;;;;;;;3.97;2.60;;;;;;;27.18;49.58;101441.25;5086527;28;20045;-74
2022/07/12 11:03:42;;;;;;;3.80;2.38;;;;;;;27.10;49.94;101442.97;5072193;28;20385;-74
2022/07/12 11:06:15;;;;;;;6.35;2.83;;;;;;;27.02;49.94;101433.91;5072536;28;20055;-74
2022/07/12 11:08:59;;;;;;;6.53;2.45;;;;;;;26.95;50.10;101435.59;5076761;28;20048;-73
2022/07/12 11:11:29;;;;;;;4.32;2.13;;;;;;;26.90;49.77;101430.69;5103126;28;20046;-74
2022/07/12 11:13:58;;;;;;;5.43;2.47;;;;;;;26.85;49.99;101438.47;5115863;28;20051;-73
2022/07/12 11:16:27;;;;;;;3.50;2.22;;;;;;;26.82;49.95;101442.38;5116837;28;20051;-75
2022/07/12 11:18:55;;;;;;;4.50;2.20;;;;;;;26.78;50.00;101432.88;5114635;28;20109;-74
2022/07/12 11:21:23;;;;;;;5.57;2.50;;;;;;;26.75;49.69;101432.34;5097533;28;20495;-74
2022/07/12 11:23:52;;;;;;;5.25;2.47;;;;;;;26.72;49.53;101424.53;5111438;28;20040;-74
2022/07/12 11:26:19;;;;;;;4.07;2.17;;;;;;;26.69;49.59;101422.97;5096009;28;20135;-73
2022/07/12 11:28:51;;;;;;;4.15;2.40;;;;;;;26.68;49.23;101424.00;5096020;28;20044;-73
2022/07/12 11:31:18;;;;;;;3.92;2.30;;;;;;;26.65;48.99;101427.03;5095989;28;20044;-73
2022/07/12 11:33:49;;;;;;;5.55;2.50;;;;;;;26.63;49.03;101419.06;5096499;28;20044;-73
2022/07/12 11:36:17;;;;;;;3.85;2.42;;;;;;;26.62;49.15;101416.53;5095526;28;20048;-73
2022/07/12 11:38:45;;;;;;;3.33;2.03;;;;;;;26.60;48.86;101413.13;5095407;28;20060;-74
2022/07/12 11:41:14;;;;;;;4.72;2.40;;;;;;;26.58;48.85;101418.72;5089600;28;20040;-74
2022/07/12 11:43:42;;;;;;;4.70;2.35;;;;;;;26.57;48.62;101408.00;5075245;28;20096;-74
2022/07/12 11:46:10;;;;;;;3.53;2.58;;;;;;;26.54;48.25;101406.50;5082743;28;20044;-74
2022/07/12 11:48:41;;;;;;;8.70;2.70;;;;;;;26.52;48.22;101413.94;5094477;28;20407;-74